Time;durP1;ratioP1;P1;durP2;ratioP2;P2;SDS_P1;SDS_P2;PMS_P1;PMS_P2;Temp;Humidity;BMP_temperature;BMP_pressure;BME280_temperature;BME280_humidity;BME280_pressure;Samples;Min_cycle;Max_cycle;Signal;HPM_P1;HPM_P2
2023/11/20 08:59:17;;;;;;;;;;;;;;;5.12;100.00;99417.59;6244383;23;19958;-85
2023/11/20 09:01:45;;;;;;;;;;;;;;;5.15;100.00;99414.88;6245540;23;19923;-83
2023/11/20 09:04:11;;;;;;;;;;;;;;;5.18;100.00;99413.03;6244058;23;20235;-82
2023/11/20 09:06:37;;;;;;;;;;;;;;;5.12;100.00;99420.22;6245661;23;19912;-83
2023/11/20 09:09:05;;;;;;;;;;;;;;;5.16;100.00;99420.09;6245517;23;19922;-84
2023/11/20 09:11:31;;;;;;;;;;;;;;;5.14;100.00;99419.28;6243781;23;19915;-82
2023/11/20 09:13:56;;;;;;;;;;;;;;;5.16;100.00;99414.84;6245410;23;20335;-82
2023/11/20 09:16:22;;;;;;;;;;;;;;;5.19;100.00;99419.16;6245465;23;19926;-83
2023/11/20 09:18:47;;;;;;;;;;;;;;;5.22;100.00;99412.06;6245680;23;19915;-83
2023/11/20 09:21:13;;;;;;;;;;;;;;;5.20;100.00;99411.25;6245652;23;20385;-83
2023/11/20 09:23:38;;;;;;;;;;;;;;;5.26;100.00;99410.22;6245207;23;19938;-82
2023/11/20 09:26:07;;;;;;;;;;;;;;;5.19;100.00;99414.78;6243594;23;19970;-82
2023/11/20 09:28:32;;;;;;;;;;;;;;;5.19;100.00;99413.91;6245393;23;19919;-82
2023/11/20 09:30:57;;;;;;;;;;;;;;;5.15;100.00;99413.13;6244923;23;19912;-82
2023/11/20 09:33:23;;;;;;;;;;;;;;;5.23;100.00;99408.53;6245169;23;19915;-82
2023/11/20 09:35:48;;;;;;;;;;;;;;;5.14;100.00;99403.53;6245030;23;19919;-83
2023/11/20 09:38:13;;;;;;;;;;;;;;;5.24;100.00;99406.78;6245297;23;19994;-84
2023/11/20 09:40:42;;;;;;;;;;;;;;;5.24;100.00;99407.63;6245109;23;19918;-83
2023/11/20 09:43:09;;;;;;;;;;;;;;;5.22;100.00;99409.44;6243633;23;19919;-84
2023/11/20 09:45:36;;;;;;;;;;;;;;;5.21;100.00;99415.59;6245191;23;19915;-85
2023/11/20 09:48:02;;;;;;;;;;;;;;;5.19;100.00;99420.03;6245167;23;19912;-83
2023/11/20 09:50:28;;;;;;;;;;;;;;;5.28;100.00;99409.28;6245103;23;19998;-83
2023/11/20 09:52:56;;;;;;;;;;;;;;;5.31;100.00;99405.69;6245116;23;19950;-83
2023/11/20 09:55:22;;;;;;;;;;;;;;;5.23;100.00;99405.03;6244901;23;20320;-83
2023/11/20 09:57:49;;;;;;;;;;;;;;;5.21;100.00;99394.56;6243290;23;19916;-83
2023/11/20 10:00:17;;;;;;;;;;;;;;;5.21;100.00;99399.81;6245149;23;19919;-82
2023/11/20 10:02:45;;;;;;;;;;;;;;;5.25;100.00;99398.00;6245098;23;19916;-82
2023/11/20 10:05:14;;;;;;;;;;;;;;;5.28;100.00;99396.13;6245324;23;19912;-82
2023/11/20 10:07:41;;;;;;;;;;;;;;;5.22;100.00;99392.81;6244953;23;19916;-82
2023/11/20 10:10:07;;;;;;;;;;;;;;;5.36;100.00;99389.78;6245014;23;19923;-82
2023/11/20 10:12:35;;;;;;;;;;;;;;;5.23;100.00;99382.28;6243192;23;19915;-82
2023/11/20 10:15:00;;;;;;;;;;;;;;;5.25;100.00;99376.97;6245090;23;19926;-83
2023/11/20 10:17:27;;;;;;;;;;;;;;;5.39;100.00;99366.94;6244990;23;19912;-83
2023/11/20 10:19:52;;;;;;;;;;;;;;;5.24;100.00;99378.72;6244932;23;19912;-83
2023/11/20 10:22:24;;;;;;;;;;;;;;;5.32;100.00;99370.63;6244823;23;19951;-84
2023/11/20 10:24:49;;;;;;;;;;;;;;;5.34;100.00;99375.84;6244815;23;19919;-84
2023/11/20 10:27:17;;;;;;;;;;;;;;;5.35;100.00;99367.06;6243384;23;19912;-84
2023/11/20 10:29:42;;;;;;;;;;;;;;;5.33;100.00;99359.22;6244971;23;19990;-83
2023/11/20 10:32:07;;;;;;;;;;;;;;;5.41;100.00;99353.78;6244976;23;19989;-83
2023/11/20 10:34:33;;;;;;;;;;;;;;;5.32;100.00;99357.50;6244889;23;20327;-84
2023/11/20 10:37:04;;;;;;;;;;;;;;;5.28;100.00;99355.84;6244917;23;19922;-84
2023/11/20 10:39:29;;;;;;;;;;;;;;;5.32;100.00;99354.03;6245016;23;19919;-85
2023/11/20 10:41:56;;;;;;;;;;;;;;;5.30;100.00;99347.94;6243519;23;20323;-84
2023/11/20 10:44:21;;;;;;;;;;;;;;;5.34;100.00;99357.47;6247230;23;19915;-84
2023/11/20 10:46:47;;;;;;;;;;;;;;;5.34;100.00;99344.31;6246951;23;20266;-83
2023/11/20 10:49:17;;;;;;;;;;;;;;;5.33;100.00;99342.59;6246909;23;19943;-83
2023/11/20 10:51:52;;;;;;;;;;;;;;;5.31;100.00;99328.66;6247433;23;20323;-83
2023/11/20 10:54:22;;;;;;;;;;;;;;;5.44;100.00;99324.75;6247062;23;19992;-80
2023/11/20 10:56:48;;;;;;;;;;;;;;;5.54;100.00;99326.22;6245479;23;19911;-80
2023/11/20 10:59:15;;;;;;;;;;;;;;;5.39;100.00;99317.03;6246856;23;19919;-81
2023/11/20 11:01:41;;;;;;;;;;;;;;;5.38;100.00;99314.44;6246818;23;19986;-82
2023/11/20 11:04:08;;;;;;;;;;;;;;;5.40;100.00;99310.00;6245215;23;20325;-81
2023/11/20 11:06:33;;;;;;;;;;;;;;;5.39;100.00;99308.25;6246839;23;20251;-81
2023/11/20 11:09:01;;;;;;;;;;;;;;;5.35;100.00;99304.03;6246756;23;19911;-83
2023/11/20 11:11:27;;;;;;;;;;;;;;;5.38;100.00;99307.41;6245095;23;19919;-82
2023/11/20 11:13:52;;;;;;;;;;;;;;;5.33;100.00;99300.56;6246860;23;19920;-80
2023/11/20 11:16:21;;;;;;;;;;;;;;;5.37;100.00;99299.56;6245676;23;19915;-83
2023/11/20 11:18:49;;;;;;;;;;;;;;;5.24;100.00;99285.94;6246465;23;19912;-82
2023/11/20 11:21:16;;;;;;;;;;;;;;;5.23;100.00;99292.97;6246591;23;19911;-83
2023/11/20 11:23:49;;;;;;;;;;;;;;;5.30;100.00;99285.75;6219491;23;19919;-86
2023/11/20 11:26:21;;;;;;;;;;;;;;;5.30;100.00;99275.25;6244917;23;20014;-83
2023/11/20 11:28:51;;;;;;;;;;;;;;;5.38;100.00;99272.41;6246627;23;19915;-82
2023/11/20 11:31:18;;;;;;;;;;;;;;;5.35;100.00;99277.75;6219286;23;19915;-83
2023/11/20 11:33:47;;;;;;;;;;;;;;;5.40;100.00;99273.22;6246487;23;19919;-79
2023/11/20 11:36:15;;;;;;;;;;;;;;;5.33;100.00;99269.91;6246808;23;19911;-82
2023/11/20 11:38:58;;;;;;;;;;;;;;;5.33;100.00;99261.16;6246466;23;19916;-83
2023/11/20 11:41:35;;;;;;;;;;;;;;;5.34;100.00;99261.09;6218136;23;19922;-82
2023/11/20 11:44:03;;;;;;;;;;;;;;;5.28;100.00;99256.91;6246240;23;19918;-82
2023/11/20 11:46:28;;;;;;;;;;;;;;;5.40;100.00;99246.94;6246566;23;19916;-82
2023/11/20 11:49:13;;;;;;;;;;;;;;;5.33;100.00;99248.88;6246271;23;19916;-82
2023/11/20 11:51:38;;;;;;;;;;;;;;;5.38;100.00;99235.63;6246181;23;19911;-82
2023/11/20 11:54:13;;;;;;;;;;;;;;;5.35;100.00;99238.34;6245738;23;19947;-83
2023/11/20 11:56:39;;;;;;;;;;;;;;;5.45;100.00;99240.63;6244417;23;19918;-83
2023/11/20 11:59:07;;;;;;;;;;;;;;;5.45;100.00;99231.88;6244438;23;19920;-83
2023/11/20 12:01:45;;;;;;;;;;;;;;;5.42;100.00;99217.06;6246114;23;19939;-83
2023/11/20 12:04:10;;;;;;;;;;;;;;;5.39;100.00;99229.44;6246566;23;19994;-81
2023/11/20 12:06:36;;;;;;;;;;;;;;;5.37;100.00;99226.00;6246026;23;19950;-87
2023/11/20 12:09:03;;;;;;;;;;;;;;;5.36;100.00;99221.66;6246145;23;19911;-82
2023/11/20 12:12:01;;;;;;;;;;;;;;;5.33;100.00;99219.09;6244427;23;19977;-81
2023/11/20 12:14:26;;;;;;;;;;;;;;;5.43;100.00;99212.69;6138063;23;20018;-82
2023/11/20 12:16:51;;;;;;;;;;;;;;;5.44;100.00;99209.13;6245963;23;19950;-83
2023/11/20 12:19:17;;;;;;;;;;;;;;;5.39;100.00;99208.41;6245835;23;19995;-82
2023/11/20 12:21:43;;;;;;;;;;;;;;;5.38;100.00;99197.06;6244382;23;19922;-82
2023/11/20 12:24:08;;;;;;;;;;;;;;;5.35;100.00;99194.53;6245789;23;19920;-83
2023/11/20 12:26:33;;;;;;;;;;;;;;;5.38;100.00;99188.31;6244778;23;19911;-83
2023/11/20 12:28:59;;;;;;;;;;;;;;;5.36;100.00;99193.63;6245073;23;19911;-83
2023/11/20 12:31:24;;;;;;;;;;;;;;;5.30;100.00;99179.78;6245966;23;19942;-83
2023/11/20 12:33:50;;;;;;;;;;;;;;;5.45;100.00;99168.81;6245604;23;19912;-83
2023/11/20 12:36:21;;;;;;;;;;;;;;;5.45;100.00;99166.19;6219020;23;19912;-83
2023/11/20 12:38:49;;;;;;;;;;;;;;;5.41;100.00;99172.47;6219047;23;19918;-83
2023/11/20 12:41:16;;;;;;;;;;;;;;;5.33;100.00;99177.06;6244276;23;19955;-83
2023/11/20 12:43:42;;;;;;;;;;;;;;;5.34;100.00;99170.94;6218734;23;19998;-83
2023/11/20 12:46:07;;;;;;;;;;;;;;;5.32;100.00;99168.34;6245878;23;19915;-82
2023/11/20 12:48:35;;;;;;;;;;;;;;;5.33;100.00;99158.69;6245517;23;19958;-82
2023/11/20 12:51:01;;;;;;;;;;;;;;;5.34;100.00;99157.78;6244202;23;19915;-86
2023/11/20 12:53:26;;;;;;;;;;;;;;;5.32;100.00;99157.00;6245774;23;20315;-86
2023/11/20 12:55:53;;;;;;;;;;;;;;;5.31;100.00;99155.25;6245596;23;19916;-85
2023/11/20 12:58:18;;;;;;;;;;;;;;;5.24;100.00;99158.06;6217323;23;19919;-84
2023/11/20 13:00:44;;;;;;;;;;;;;;;5.38;100.00;99157.66;6245606;23;19915;-84
2023/11/20 13:03:19;;;;;;;;;;;;;;;5.35;100.00;99151.63;6245518;23;19967;-85
2023/11/20 13:05:48;;;;;;;;;;;;;;;5.38;100.00;99152.38;6243759;23;19912;-84
2023/11/20 13:08:31;;;;;;;;;;;;;;;5.42;100.00;99142.63;6245468;23;19920;-83
2023/11/20 13:10:57;;;;;;;;;;;;;;;5.41;100.00;99141.78;6245129;23;19923;-84
2023/11/20 13:13:27;;;;;;;;;;;;;;;5.40;100.00;99139.22;6242783;23;20243;-83
2023/11/20 13:15:54;;;;;;;;;;;;;;;5.42;100.00;99138.22;6245620;23;20377;-83
2023/11/20 13:18:20;;;;;;;;;;;;;;;5.44;100.00;99140.81;6245904;23;19911;-84
2023/11/20 13:20:49;;;;;;;;;;;;;;;5.48;100.00;99133.72;6244175;23;19912;-85
2023/11/20 13:23:15;;;;;;;;;;;;;;;5.48;100.00;99131.94;6245354;23;19915;-87
2023/11/20 13:25:41;;;;;;;;;;;;;;;5.42;100.00;99124.25;6245146;23;19915;-85
2023/11/20 13:28:09;;;;;;;;;;;;;;;5.37;100.00;99123.53;6242008;23;19991;-83
2023/11/20 13:30:35;;;;;;;;;;;;;;;5.33;100.00;99129.78;6245265;23;19915;-84
2023/11/20 13:33:00;;;;;;;;;;;;;;;5.35;100.00;99130.63;6245418;23;19911;-85
2023/11/20 13:35:25;;;;;;;;;;;;;;;5.39;100.00;99126.97;6243810;23;19970;-83
2023/11/20 13:37:55;;;;;;;;;;;;;;;5.38;100.00;99125.28;6245264;23;19923;-85
2023/11/20 13:40:20;;;;;;;;;;;;;;;5.38;100.00;99123.50;6245675;23;19919;-82
2023/11/20 13:42:48;;;;;;;;;;;;;;;5.37;100.00;99119.13;6241965;23;19912;-83
2023/11/20 13:45:15;;;;;;;;;;;;;;;5.33;100.00;99120.16;6245177;23;20394;-82
2023/11/20 13:47:41;;;;;;;;;;;;;;;5.41;100.00;99119.91;6245176;23;19939;-84
2023/11/20 13:50:11;;;;;;;;;;;;;;;5.27;100.00;99113.31;6218347;23;19919;-83
2023/11/20 13:52:37;;;;;;;;;;;;;;;5.32;100.00;99105.28;6245129;23;19919;-83
2023/11/20 13:55:04;;;;;;;;;;;;;;;5.25;100.00;99102.00;6245224;23;19985;-82
2023/11/20 13:57:30;;;;;;;;;;;;;;;5.39;100.00;99104.19;6216464;23;19923;-86
2023/11/20 13:59:56;;;;;;;;;;;;;;;5.23;100.00;99105.59;6245013;23;19969;-82
2023/11/20 14:02:21;;;;;;;;;;;;;;;5.32;100.00;99104.44;6245155;23;19958;-83
2023/11/20 14:04:50;;;;;;;;;;;;;;;5.21;100.00;99097.75;6244964;23;19922;-84
2023/11/20 14:07:18;;;;;;;;;;;;;;;5.16;100.00;99091.78;6245078;23;19922;-84
2023/11/20 14:09:44;;;;;;;;;;;;;;;5.27;100.00;99096.72;6245061;23;20366;-84
2023/11/20 14:12:11;;;;;;;;;;;;;;;5.20;100.00;99080.28;6242120;23;19911;-87
2023/11/20 14:14:36;;;;;;;;;;;;;;;5.21;100.00;99079.38;6244982;23;20395;-85
2023/11/20 14:17:02;;;;;;;;;;;;;;;5.19;100.00;99073.31;6245037;23;19943;-81
2023/11/20 14:19:27;;;;;;;;;;;;;;;5.20;100.00;99072.41;6245527;23;19912;-83
2023/11/20 14:21:52;;;;;;;;;;;;;;;5.16;100.00;99065.53;6247410;23;19945;-82
2023/11/20 14:24:18;;;;;;;;;;;;;;;5.13;100.00;99072.66;6246908;23;19955;-84
2023/11/20 14:26:46;;;;;;;;;;;;;;;5.09;100.00;99066.66;6246575;23;19912;-82
2023/11/20 14:29:11;;;;;;;;;;;;;;;5.09;100.00;99066.66;6247202;23;19987;-82
2023/11/20 14:31:38;;;;;;;;;;;;;;;5.18;100.00;99066.31;6246996;23;20334;-85
2023/11/20 14:34:04;;;;;;;;;;;;;;;5.23;100.00;99064.44;6246964;23;19990;-83
2023/11/20 14:36:29;;;;;;;;;;;;;;;5.21;100.00;99066.22;6246888;23;19943;-82
2023/11/20 14:38:56;;;;;;;;;;;;;;;5.24;100.00;99066.13;6246895;23;20302;-83
2023/11/20 14:41:21;;;;;;;;;;;;;;;5.22;100.00;99052.19;6244119;23;19911;-82
2023/11/20 14:43:47;;;;;;;;;;;;;;;5.25;100.00;99057.34;6247106;23;19955;-83
2023/11/20 14:46:12;;;;;;;;;;;;;;;5.26;100.00;99063.47;6246931;23;20361;-83
2023/11/20 14:48:38;;;;;;;;;;;;;;;5.25;100.00;99065.22;6220108;23;20247;-83
2023/11/20 14:51:04;;;;;;;;;;;;;;;5.20;100.00;99068.91;6246985;23;19957;-82
2023/11/20 14:53:29;;;;;;;;;;;;;;;5.24;100.00;99060.88;6246668;23;19986;-82
2023/11/20 14:55:54;;;;;;;;;;;;;;;5.25;100.00;99057.34;6245054;23;19912;-81
2023/11/20 14:58:19;;;;;;;;;;;;;;;5.19;100.00;99062.81;6245044;23;19922;-81
2023/11/20 15:00:45;;;;;;;;;;;;;;;5.28;100.00;99053.75;6246661;23;19943;-80
2023/11/20 15:03:10;;;;;;;;;;;;;;;5.26;100.00;99053.84;6219817;23;19938;-83
2023/11/20 15:05:37;;;;;;;;;;;;;;;5.25;100.00;99056.50;6246582;23;19911;-82
2023/11/20 15:08:04;;;;;;;;;;;;;;;5.15;100.00;99042.78;6246474;23;19957;-82
2023/11/20 15:10:29;;;;;;;;;;;;;;;5.15;100.00;99042.78;6244931;23;19923;-81
2023/11/20 15:12:54;;;;;;;;;;;;;;;5.18;100.00;99044.47;6245456;23;19912;-85
2023/11/20 15:15:22;;;;;;;;;;;;;;;5.26;100.00;99045.06;6246652;23;19916;-84
2023/11/20 15:17:47;;;;;;;;;;;;;;;5.23;100.00;99038.16;6220183;23;19912;-83
2023/11/20 15:20:22;;;;;;;;;;;;;;;5.17;100.00;99032.22;6246619;23;20251;-84
2023/11/20 15:22:47;;;;;;;;;;;;;;;5.13;100.00;99041.97;6246758;23;19912;-86
2023/11/20 15:25:13;;;;;;;;;;;;;;;5.12;100.00;99042.88;6244821;23;20358;-82
2023/11/20 15:27:39;;;;;;;;;;;;;;;5.15;100.00;99039.31;6245005;23;20014;-83
2023/11/20 15:30:14;;;;;;;;;;;;;;;5.11;100.00;99033.31;6246370;23;19939;-83
2023/11/20 15:32:40;;;;;;;;;;;;;;;5.14;100.00;99042.84;6219636;23;19962;-84
2023/11/20 15:35:05;;;;;;;;;;;;;;;5.09;100.00;99035.13;6246277;23;19915;-82
2023/11/20 15:37:31;;;;;;;;;;;;;;;5.11;100.00;99035.94;6246228;23;19911;-82
2023/11/20 15:39:57;;;;;;;;;;;;;;;5.09;100.00;99035.13;6219567;23;19942;-82
2023/11/20 15:42:22;;;;;;;;;;;;;;;5.11;100.00;99030.69;6244740;23;20178;-84
2023/11/20 15:44:47;;;;;;;;;;;;;;;5.08;100.00;99034.25;6246210;23;19911;-84
2023/11/20 15:47:12;;;;;;;;;;;;;;;5.20;100.00;99037.38;6219513;23;19915;-81
2023/11/20 15:49:38;;;;;;;;;;;;;;;5.14;100.00;99038.47;6246270;23;19908;-82
2023/11/20 15:52:03;;;;;;;;;;;;;;;5.08;100.00;99046.53;6245982;23;19942;-82
2023/11/20 15:54:30;;;;;;;;;;;;;;;5.17;100.00;99037.50;6219376;23;19912;-82
2023/11/20 15:56:58;;;;;;;;;;;;;;;5.08;100.00;99038.66;6244532;23;20286;-83
2023/11/20 15:59:23;;;;;;;;;;;;;;;5.07;100.00;99036.94;6246003;23;19947;-82
2023/11/20 16:01:52;;;;;;;;;;;;;;;5.02;100.00;99037.06;6246098;23;19919;-82
2023/11/20 16:04:21;;;;;;;;;;;;;;;5.12;100.00;99042.03;6245978;23;19997;-82
2023/11/20 16:06:47;;;;;;;;;;;;;;;5.13;100.00;99039.38;6246318;23;20247;-83
2023/11/20 16:09:16;;;;;;;;;;;;;;;5.11;100.00;99032.47;6246002;23;19912;-82
2023/11/20 16:11:45;;;;;;;;;;;;;;;5.08;100.00;99030.78;6244430;23;19911;-86
2023/11/20 16:14:10;;;;;;;;;;;;;;;5.12;100.00;99045.50;6246043;23;19954;-83
2023/11/20 16:16:37;;;;;;;;;;;;;;;5.10;100.00;99036.84;6245821;23;20324;-83
2023/11/20 16:19:03;;;;;;;;;;;;;;;5.05;100.00;99025.63;6245894;23;19933;-81
2023/11/20 16:21:28;;;;;;;;;;;;;;;5.02;100.00;99026.56;6244985;23;19912;-82
2023/11/20 16:23:53;;;;;;;;;;;;;;;5.05;100.00;99023.00;6245258;23;20227;-86
2023/11/20 16:26:19;;;;;;;;;;;;;;;5.12;100.00;99026.28;6243842;23;19962;-81
2023/11/20 16:28:45;;;;;;;;;;;;;;;5.09;100.00;99035.13;6245007;23;19946;-87
2023/11/20 16:31:11;;;;;;;;;;;;;;;5.11;100.00;99038.56;6244879;23;19918;-81
2023/11/20 16:33:36;;;;;;;;;;;;;;;5.16;100.00;99043.66;6245037;23;19915;-81
2023/11/20 16:36:02;;;;;;;;;;;;;;;5.19;100.00;99035.69;6245750;23;19980;-81
2023/11/20 16:38:29;;;;;;;;;;;;;;;5.22;100.00;99028.56;6244868;23;19916;-81
2023/11/20 16:40:54;;;;;;;;;;;;;;;5.09;100.00;99033.34;6244648;23;19912;-81
2023/11/20 16:43:19;;;;;;;;;;;;;;;5.11;100.00;99032.47;6241972;23;19973;-81
2023/11/20 16:45:44;;;;;;;;;;;;;;;5.05;100.00;99046.63;6217585;23;19934;-85
2023/11/20 16:48:10;;;;;;;;;;;;;;;5.05;100.00;99044.00;6243947;23;19922;-87
2023/11/20 16:50:36;;;;;;;;;;;;;;;5.02;100.00;99044.09;6244729;23;20251;-81
2023/11/20 16:53:01;;;;;;;;;;;;;;;5.09;100.00;99035.13;6218043;23;19912;-80
2023/11/20 16:55:27;;;;;;;;;;;;;;;5.15;100.00;99032.28;6245786;23;19915;-83
2023/11/20 16:57:53;;;;;;;;;;;;;;;5.07;100.00;99035.19;6243971;23;19919;-82
2023/11/20 17:00:19;;;;;;;;;;;;;;;5.10;100.00;99036.84;6218619;23;19912;-84
2023/11/20 17:02:47;;;;;;;;;;;;;;;5.07;100.00;99034.31;6245736;23;20324;-82
2023/11/20 17:05:13;;;;;;;;;;;;;;;5.04;100.00;99032.66;6245308;23;19938;-82
2023/11/20 17:07:40;;;;;;;;;;;;;;;5.07;100.00;99032.56;6244093;23;20003;-82
2023/11/20 17:10:06;;;;;;;;;;;;;;;5.03;100.00;99027.44;6245457;23;19907;-82
2023/11/20 17:12:32;;;;;;;;;;;;;;;5.07;100.00;99034.31;6243560;23;19970;-83
2023/11/20 17:14:59;;;;;;;;;;;;;;;5.01;100.00;99031.88;6243432;23;19991;-82
2023/11/20 17:17:24;;;;;;;;;;;;;;;5.01;100.00;99031.88;6245592;23;19915;-82
2023/11/20 17:19:52;;;;;;;;;;;;;;;5.08;100.00;99030.78;6245351;23;19912;-82
2023/11/20 17:22:18;;;;;;;;;;;;;;;5.14;100.00;99033.22;6217853;23;19990;-89
2023/11/20 17:24:43;;;;;;;;;;;;;;;5.15;100.00;99032.28;6244456;23;20332;-82
2023/11/20 17:27:08;;;;;;;;;;;;;;;5.06;100.00;99029.97;6242565;23;19916;-81
2023/11/20 17:29:33;;;;;;;;;;;;;;;5.03;100.00;99030.94;6243413;23;19923;-82
2023/11/20 17:31:59;;;;;;;;;;;;;;;5.06;100.00;99027.34;6244938;23;19916;-83
2023/11/20 17:34:24;;;;;;;;;;;;;;;5.03;100.00;99032.69;6244100;23;19911;-82
2023/11/20 17:36:49;;;;;;;;;;;;;;;5.11;100.00;99021.97;6243709;23;19923;-83
2023/11/20 17:39:15;;;;;;;;;;;;;;;5.04;100.00;99016.03;6244413;23;19915;-82
2023/11/20 17:41:41;;;;;;;;;;;;;;;4.98;100.00;99021.47;6243430;23;19935;-82
2023/11/20 17:44:07;;;;;;;;;;;;;;;5.05;100.00;99015.13;6245117;23;19912;-82
2023/11/20 17:46:33;;;;;;;;;;;;;;;5.08;100.00;99022.91;6244380;23;19922;-81
2023/11/20 17:48:59;;;;;;;;;;;;;;;5.11;100.00;99016.69;6244561;23;19915;-84
2023/11/20 17:51:25;;;;;;;;;;;;;;;5.00;100.00;99017.03;6244640;23;19916;-83
2023/11/20 17:53:50;;;;;;;;;;;;;;;5.01;100.00;99016.13;6243677;23;19943;-86
2023/11/20 17:56:16;;;;;;;;;;;;;;;4.96;100.00;99012.78;6243123;23;19923;-83
2023/11/20 17:58:41;;;;;;;;;;;;;;;5.03;100.00;99007.28;6245207;23;19924;-82
2023/11/20 18:01:07;;;;;;;;;;;;;;;5.08;100.00;99007.16;6244541;23;19911;-83
2023/11/20 18:03:33;;;;;;;;;;;;;;;5.06;100.00;99001.09;6243604;23;20324;-83
2023/11/20 18:05:58;;;;;;;;;;;;;;;4.99;100.00;98996.94;6243077;23;19958;-83
2023/11/20 18:08:24;;;;;;;;;;;;;;;4.87;100.00;99000.84;6244711;23;19916;-82
2023/11/20 18:10:50;;;;;;;;;;;;;;;4.93;100.00;99000.63;6245178;23;19915;-83
2023/11/20 18:13:16;;;;;;;;;;;;;;;4.94;100.00;99004.13;6241612;23;19998;-83
2023/11/20 18:15:42;;;;;;;;;;;;;;;4.96;100.00;98997.03;6244662;23;19927;-84
2023/11/20 18:18:09;;;;;;;;;;;;;;;5.00;100.00;98998.66;6244953;23;20278;-83
2023/11/20 18:20:35;;;;;;;;;;;;;;;5.02;100.00;98996.84;6243595;23;19922;-84
2023/11/20 18:23:00;;;;;;;;;;;;;;;4.95;100.00;98979.59;6244729;23;19950;-83
2023/11/20 18:25:28;;;;;;;;;;;;;;;4.99;100.00;98995.16;6243991;23;20282;-83
2023/11/20 18:27:53;;;;;;;;;;;;;;;4.96;100.00;98990.00;6242195;23;19920;-85
2023/11/20 18:30:18;;;;;;;;;;;;;;;4.96;100.00;98989.16;6244985;23;20045;-84
2023/11/20 18:32:44;;;;;;;;;;;;;;;4.96;100.00;98986.53;6244310;23;19912;-84
2023/11/20 18:35:09;;;;;;;;;;;;;;;4.97;100.00;98983.00;6244240;23;19916;-83
2023/11/20 18:37:34;;;;;;;;;;;;;;;5.01;100.00;98976.72;6244960;23;19919;-82
2023/11/20 18:40:01;;;;;;;;;;;;;;;5.02;100.00;98978.47;6244631;23;19915;-83
2023/11/20 18:42:26;;;;;;;;;;;;;;;5.05;100.00;98978.34;6243460;23;20382;-82
2023/11/20 18:44:51;;;;;;;;;;;;;;;5.05;100.00;98981.00;6244222;23;19911;-83
2023/11/20 18:47:17;;;;;;;;;;;;;;;5.09;100.00;98988.72;6245628;23;19922;-83
2023/11/20 18:49:45;;;;;;;;;;;;;;;5.03;100.00;98993.31;6243438;23;19938;-83
2023/11/20 18:52:10;;;;;;;;;;;;;;;5.11;100.00;98974.69;6243220;23;19918;-82
2023/11/20 18:54:35;;;;;;;;;;;;;;;5.15;100.00;98971.88;6244958;23;19994;-83
2023/11/20 18:57:01;;;;;;;;;;;;;;;5.14;100.00;98972.81;6240023;23;20328;-83
2023/11/20 18:59:26;;;;;;;;;;;;;;;5.21;100.00;98981.34;6244765;23;19941;-84
2023/11/20 19:01:52;;;;;;;;;;;;;;;5.23;100.00;98976.88;6242570;23;20284;-84
2023/11/20 19:04:17;;;;;;;;;;;;;;;5.17;100.00;98974.44;6245078;23;20236;-83
2023/11/20 19:06:43;;;;;;;;;;;;;;;5.17;100.00;98985.84;6245313;23;19915;-84
2023/11/20 19:09:09;;;;;;;;;;;;;;;5.08;100.00;98973.84;6244340;23;19934;-85
2023/11/20 19:11:34;;;;;;;;;;;;;;;5.09;100.00;98980.00;6244198;23;19912;-84
2023/11/20 19:13:59;;;;;;;;;;;;;;;5.12;100.00;98986.88;6246310;23;20283;-83
2023/11/20 19:16:25;;;;;;;;;;;;;;;5.13;100.00;98981.59;6244355;23;19911;-84
2023/11/20 19:18:50;;;;;;;;;;;;;;;5.14;100.00;98991.19;6245268;23;19912;-89
2023/11/20 19:21:15;;;;;;;;;;;;;;;5.21;100.00;98987.44;6246209;23;19908;-87
2023/11/20 19:23:40;;;;;;;;;;;;;;;5.17;100.00;98980.59;6219238;23;19943;-87
2023/11/20 19:26:05;;;;;;;;;;;;;;;5.24;100.00;98976.81;6244968;23;19912;-84
2023/11/20 19:28:31;;;;;;;;;;;;;;;5.14;100.00;98978.06;6244338;23;19915;-83
2023/11/20 19:30:56;;;;;;;;;;;;;;;5.19;100.00;98964.78;6218727;23;19911;-86
2023/11/20 19:33:21;;;;;;;;;;;;;;;5.22;100.00;98968.16;6245750;23;19915;-84
2023/11/20 19:35:46;;;;;;;;;;;;;;;5.15;100.00;98969.25;6245545;23;19926;-83
2023/11/20 19:38:12;;;;;;;;;;;;;;;5.20;100.00;98964.72;6244750;23;20316;-82
2023/11/20 19:40:37;;;;;;;;;;;;;;;5.26;100.00;98967.16;6245190;23;19911;-83
2023/11/20 19:43:02;;;;;;;;;;;;;;;5.20;100.00;98967.34;6244450;23;19945;-82
2023/11/20 19:45:29;;;;;;;;;;;;;;;5.20;100.00;98959.47;6219385;23;19920;-82
2023/11/20 19:47:56;;;;;;;;;;;;;;;5.09;100.00;98969.47;6245735;23;19911;-84
2023/11/20 19:50:21;;;;;;;;;;;;;;;5.14;100.00;98964.94;6246252;23;20328;-84
2023/11/20 19:52:47;;;;;;;;;;;;;;;5.14;100.00;98958.78;6219806;23;19918;-83
2023/11/20 19:55:12;;;;;;;;;;;;;;;5.19;100.00;98962.16;6245659;23;19945;-83
2023/11/20 19:57:38;;;;;;;;;;;;;;;5.07;100.00;98952.91;6244284;23;19919;-83
2023/11/20 20:00:09;;;;;;;;;;;;;;;5.21;100.00;98958.53;6219384;23;20008;-83
2023/11/20 20:02:35;;;;;;;;;;;;;;;5.19;100.00;98955.13;6245719;23;19915;-84
2023/11/20 20:05:01;;;;;;;;;;;;;;;5.16;100.00;98951.75;6245229;23;19938;-83
2023/11/20 20:07:27;;;;;;;;;;;;;;;5.19;100.00;98956.91;6219416;23;19956;-82
2023/11/20 20:09:53;;;;;;;;;;;;;;;5.11;100.00;98956.31;6246196;23;19916;-83
2023/11/20 20:12:18;;;;;;;;;;;;;;;5.12;100.00;98950.13;6244427;23;19950;-82
2023/11/20 20:14:45;;;;;;;;;;;;;;;5.16;100.00;98952.59;6245484;23;19911;-83
2023/11/20 20:17:12;;;;;;;;;;;;;;;5.19;100.00;98949.88;6245492;23;19918;-84
2023/11/20 20:19:43;;;;;;;;;;;;;;;5.19;100.00;98949.03;6246019;23;19915;-85
2023/11/20 20:22:09;;;;;;;;;;;;;;;5.17;100.00;98949.06;6245697;23;19946;-84
2023/11/20 20:24:34;;;;;;;;;;;;;;;5.14;100.00;98948.28;6245000;23;20014;-84
2023/11/20 20:26:59;;;;;;;;;;;;;;;5.12;100.00;98945.72;6244625;23;19918;-83
2023/11/20 20:29:25;;;;;;;;;;;;;;;5.12;100.00;98950.97;6244994;23;19916;-83
2023/11/20 20:31:51;;;;;;;;;;;;;;;5.16;100.00;98955.22;6245878;23;19911;-83
2023/11/20 20:34:17;;;;;;;;;;;;;;;5.13;100.00;98955.31;6245771;23;20026;-81
2023/11/20 20:36:42;;;;;;;;;;;;;;;5.10;100.00;98947.53;6244771;23;19959;-82
2023/11/20 20:39:11;;;;;;;;;;;;;;;5.09;100.00;98951.09;6218625;23;20239;-81
2023/11/20 20:41:36;;;;;;;;;;;;;;;5.19;100.00;98956.91;6243926;23;19923;-84
2023/11/20 20:44:02;;;;;;;;;;;;;;;5.21;100.00;98953.28;6245760;23;19911;-81
2023/11/20 20:46:30;;;;;;;;;;;;;;;5.13;100.00;98947.44;6218833;23;20128;-81
2023/11/20 20:48:56;;;;;;;;;;;;;;;5.13;100.00;98947.44;6218568;23;19946;-81
2023/11/20 20:51:21;;;;;;;;;;;;;;;5.21;100.00;98948.03;6245238;23;19911;-83
2023/11/20 20:53:46;;;;;;;;;;;;;;;5.21;100.00;98936.69;6245701;23;19915;-82
2023/11/20 20:56:12;;;;;;;;;;;;;;;5.19;100.00;98944.63;6244167;23;19947;-82
2023/11/20 20:58:38;;;;;;;;;;;;;;;5.24;100.00;98945.31;6244946;23;19927;-82
2023/11/20 21:01:04;;;;;;;;;;;;;;;5.14;100.00;98945.66;6244882;23;20352;-83
2023/11/20 21:03:31;;;;;;;;;;;;;;;5.20;100.00;98946.34;6245420;23;19990;-82
2023/11/20 21:05:56;;;;;;;;;;;;;;;5.19;100.00;98939.34;6243959;23;19965;-83
2023/11/20 21:08:21;;;;;;;;;;;;;;;5.14;100.00;98937.78;6244708;23;19911;-83
2023/11/20 21:10:47;;;;;;;;;;;;;;;5.24;100.00;98936.56;6245365;23;20025;-86
2023/11/20 21:13:12;;;;;;;;;;;;;;;5.24;100.00;98940.06;6241772;23;19916;-86
2023/11/20 21:15:37;;;;;;;;;;;;;;;5.13;100.00;98931.69;6244772;23;19976;-84
2023/11/20 21:18:03;;;;;;;;;;;;;;;5.16;100.00;98936.84;6245479;23;19923;-84
2023/11/20 21:20:28;;;;;;;;;;;;;;;5.16;100.00;98941.25;6243812;23;19912;-85
2023/11/20 21:22:53;;;;;;;;;;;;;;;5.14;100.00;98943.03;6245262;23;19943;-83
2023/11/20 21:25:19;;;;;;;;;;;;;;;5.12;100.00;98937.84;6245204;23;19915;-83
2023/11/20 21:27:44;;;;;;;;;;;;;;;5.21;100.00;98934.91;6242451;23;20319;-83
2023/11/20 21:30:09;;;;;;;;;;;;;;;5.09;100.00;98936.19;6245175;23;19915;-83
2023/11/20 21:32:35;;;;;;;;;;;;;;;5.05;100.00;98931.09;6245254;23;20358;-82
2023/11/20 21:35:00;;;;;;;;;;;;;;;5.13;100.00;98930.84;6245663;23;20343;-82
2023/11/20 21:37:25;;;;;;;;;;;;;;;5.13;100.00;98936.94;6245245;23;19911;-84
2023/11/20 21:39:50;;;;;;;;;;;;;;;5.18;100.00;98940.25;6245158;23;19951;-85
2023/11/20 21:42:16;;;;;;;;;;;;;;;5.20;100.00;98938.47;6243162;23;19911;-83